aviador You're here:

CYQA Decoded Metar

MUSKOKA in ON, CANADA
Report Time2017-11-20 22:30:00
UTC Time2017-11-20 22:52:34
Flight Rules mvfr MVFR
Wind120° at 04 kt
W.Decomp.*RWY 18: 2.6 kt HW 3 kt LCW
W.Rank120° ranks 11
Current wind is below 120° avg. (5.6)
Visibility9999 m
Phenomena:N/A
Clouds:Broken 022 Hf
Overcast 028 Hf
Expected CloudBase > 800 ft AGL from Temp-Dew spread
Ceiling2,200 ft
Temp-3°C (ISA -16)
Dew Point-5°C (86% RH)
AAT-7.1°C
QNH1010 hPa
Density Alt-896 ft
Elevation925 ft
Report Wrong Elevation
Raw Report
SPECI CYQA 202230Z AUTO 12004KT 080V170 9SM BKN022 OVC028 M03/M05 A2982
RMK SLP117=

Extra information for CYQA:More info

Metar Taf Metar & Taf Last 4 Metars F.Rules Stats Wind Profile Meteogram Temp Stats Airport Information Weather charts Add Link Nearby VenuesMetar ALERT Operation Metar Decoded Social comments